Time;durP1;ratioP1;P1;durP2;ratioP2;P2;SDS_P1;SDS_P2;PMS_P1;PMS_P2;Temp;Humidity;BMP_temperature;BMP_pressure;BME280_temperature;BME280_humidity;BME280_pressure;Samples;Min_cycle;Max_cycle;Signal;HPM_P1;HPM_P2
2021/12/13 00:01:43;;;;;;;14.70;6.40;;;3.90;99.90;;;;;;6209815;23;20044;-86
2021/12/13 00:04:45;;;;;;;15.30;6.38;;;3.90;99.90;;;;;;6211778;23;20024;-86
2021/12/13 00:07:39;;;;;;;10.75;6.38;;;3.90;99.90;;;;;;6217198;23;20027;-85
2021/12/13 00:10:43;;;;;;;10.50;6.95;;;3.90;99.90;;;;;;6213216;23;20020;-87
2021/12/13 00:13:47;;;;;;;10.70;6.80;;;3.90;99.90;;;;;;6216302;23;20029;-88
2021/12/13 00:16:40;;;;;;;10.05;6.65;;;4.00;99.90;;;;;;6232371;23;20048;-86
2021/12/13 00:19:50;;;;;;;9.48;5.65;;;4.00;99.90;;;;;;6204969;23;20025;-87
2021/12/13 00:22:46;;;;;;;13.55;7.43;;;3.90;99.90;;;;;;6200119;23;20097;-88
2021/12/13 00:25:40;;;;;;;13.05;6.28;;;3.90;99.90;;;;;;6218283;23;20075;-89
2021/12/13 00:28:37;;;;;;;13.63;6.28;;;3.90;99.90;;;;;;6195633;23;20052;-88
2021/12/13 00:31:44;;;;;;;14.80;7.00;;;4.00;99.90;;;;;;6195282;23;20024;-87
2021/12/13 00:34:41;;;;;;;13.77;6.65;;;3.90;99.90;;;;;;6196965;23;20028;-86
2021/12/13 00:37:37;;;;;;;10.77;6.50;;;3.90;99.90;;;;;;6216301;23;20079;-88
2021/12/13 00:40:31;;;;;;;12.30;6.95;;;3.90;99.90;;;;;;6194500;23;20613;-88
2021/12/13 00:43:30;;;;;;;11.50;6.68;;;4.00;99.90;;;;;;6219074;23;20119;-88
2021/12/13 00:46:19;;;;;;;9.65;6.22;;;4.00;99.90;;;;;;6216955;23;20115;-85
2021/12/13 00:49:11;;;;;;;12.23;6.85;;;4.00;99.90;;;;;;6193990;23;20112;-88
2021/12/13 00:52:02;;;;;;;10.90;8.05;;;4.00;99.90;;;;;;6197278;23;20092;-86
2021/12/13 00:54:53;;;;;;;15.25;9.15;;;4.00;99.90;;;;;;6216342;23;20032;-87
2021/12/13 00:57:45;;;;;;;11.95;7.90;;;4.00;99.90;;;;;;6214195;23;20124;-86
2021/12/13 01:00:45;;;;;;;11.53;8.13;;;4.00;99.90;;;;;;6195389;23;20028;-87
2021/12/13 01:03:42;;;;;;;10.25;6.80;;;4.00;99.90;;;;;;6193825;23;20247;-88
2021/12/13 01:06:45;;;;;;;10.55;6.32;;;4.00;99.90;;;;;;6192077;23;20028;-86
2021/12/13 01:09:52;;;;;;;10.18;6.30;;;4.00;99.90;;;;;;6196935;23;20028;-87
2021/12/13 01:12:42;;;;;;;10.20;6.38;;;4.00;99.90;;;;;;6191893;23;20170;-87
2021/12/13 01:15:53;;;;;;;14.25;6.55;;;4.10;99.90;;;;;;6193950;23;20052;-86
2021/12/13 01:22:02;;;;;;;11.60;6.53;;;4.00;99.90;;;;;;6214508;23;20033;-87
2021/12/13 01:27:52;;;;;;;10.93;6.45;;;4.00;99.90;;;;;;6215319;23;20024;-88
2021/12/13 01:30:54;;;;;;;11.43;6.50;;;4.00;99.90;;;;;;6198074;23;20047;-87
2021/12/13 01:33:46;;;;;;;9.32;5.80;;;4.00;99.90;;;;;;6218185;23;20025;-86
2021/12/13 01:36:49;;;;;;;11.15;7.00;;;4.10;99.90;;;;;;6194550;23;20016;-87
2021/12/13 01:39:56;;;;;;;11.90;6.43;;;4.10;99.90;;;;;;6195780;23;20040;-88
2021/12/13 01:42:43;;;;;;;9.40;6.32;;;4.10;99.90;;;;;;6195091;23;20021;-88
2021/12/13 01:45:35;;;;;;;13.75;7.07;;;4.10;99.90;;;;;;6194570;23;20132;-87
2021/12/13 01:48:35;;;;;;;10.38;6.85;;;4.10;99.90;;;;;;6194279;23;20035;-88
2021/12/13 01:51:27;;;;;;;11.05;6.63;;;4.10;99.90;;;;;;6193322;23;20035;-88
2021/12/13 01:54:20;;;;;;;13.05;7.00;;;4.10;99.90;;;;;;6213109;23;20024;-88
2021/12/13 02:00:18;;;;;;;10.75;7.03;;;4.10;99.90;;;;;;6213545;23;20052;-88
2021/12/13 02:03:05;;;;;;;8.50;6.00;;;4.10;99.90;;;;;;6192628;23;20094;-88
2021/12/13 02:05:52;;;;;;;11.93;7.15;;;4.10;99.90;;;;;;6191899;23;20028;-85
2021/12/13 02:08:45;;;;;;;11.10;7.20;;;4.10;99.90;;;;;;6192587;23;20042;-87
2021/12/13 02:11:35;;;;;;;12.40;6.97;;;4.10;99.90;;;;;;6175365;23;20067;-89
2021/12/13 02:14:33;;;;;;;12.20;7.13;;;4.10;99.90;;;;;;6194888;23;20482;-89
2021/12/13 02:17:22;;;;;;;14.38;7.70;;;4.10;99.90;;;;;;6194351;23;20388;-89
2021/12/13 02:20:26;;;;;;;11.93;6.85;;;4.10;99.90;;;;;;6193654;23;20028;-88
2021/12/13 02:23:22;;;;;;;11.98;6.82;;;4.10;99.90;;;;;;6194218;23;20135;-90
2021/12/13 02:26:11;;;;;;;11.57;7.32;;;4.10;99.90;;;;;;6193839;23;20044;-88
2021/12/13 02:29:22;;;;;;;11.25;7.00;;;4.00;99.90;;;;;;6215613;23;20028;-87
2021/12/13 02:32:10;;;;;;;11.73;7.80;;;4.00;99.90;;;;;;6192394;23;20102;-89
2021/12/13 02:34:59;;;;;;;12.75;8.00;;;4.00;99.90;;;;;;6215034;23;20039;-87
2021/12/13 02:37:49;;;;;;;10.35;7.40;;;4.10;99.90;;;;;;6174241;23;20029;-87
2021/12/13 02:40:36;;;;;;;11.90;8.38;;;4.10;99.90;;;;;;6193305;23;20408;-85
2021/12/13 02:43:30;;;;;;;9.68;7.20;;;4.10;99.90;;;;;;6214293;23;20033;-87
2021/12/13 02:46:26;;;;;;;11.80;7.18;;;4.10;99.90;;;;;;6194141;23;20043;-86
2021/12/13 02:49:20;;;;;;;11.27;7.35;;;4.10;99.90;;;;;;6193966;23;20028;-85
2021/12/13 02:52:12;;;;;;;12.27;7.57;;;4.10;99.90;;;;;;6196925;23;20031;-88
2021/12/13 02:55:12;;;;;;;11.88;7.43;;;4.10;99.90;;;;;;6215385;23;20095;-88
2021/12/13 02:58:03;;;;;;;11.07;7.57;;;4.20;99.90;;;;;;6214341;23;20171;-88
2021/12/13 03:01:00;;;;;;;12.30;8.20;;;4.20;99.90;;;;;;6193651;23;20388;-87
2021/12/13 03:03:55;;;;;;;14.13;8.00;;;4.20;99.90;;;;;;6215499;23;20040;-88
2021/12/13 03:06:56;;;;;;;13.27;7.95;;;4.20;99.90;;;;;;6193415;23;20027;-88
2021/12/13 03:09:46;;;;;;;11.88;8.18;;;4.20;99.90;;;;;;6174854;23;20288;-88
2021/12/13 03:12:33;;;;;;;16.00;8.25;;;4.20;99.90;;;;;;6211359;23;20543;-90
2021/12/13 03:15:29;;;;;;;11.07;7.93;;;4.20;99.90;;;;;;6173650;23;20087;-89
2021/12/13 03:18:21;;;;;;;11.68;7.78;;;4.20;99.90;;;;;;6194681;23;20036;-89
2021/12/13 03:21:24;;;;;;;13.73;8.43;;;4.20;99.90;;;;;;6214260;23;20050;-88
2021/12/13 03:24:29;;;;;;;14.50;8.10;;;4.20;99.90;;;;;;6193692;23;20059;-88
2021/12/13 03:27:31;;;;;;;17.00;8.20;;;4.20;99.90;;;;;;6216054;23;20367;-88
2021/12/13 03:30:29;;;;;;;13.93;9.38;;;4.10;99.90;;;;;;6192157;23;20100;-87
2021/12/13 03:33:33;;;;;;;12.38;8.50;;;4.10;99.90;;;;;;6213584;23;20335;-88
2021/12/13 03:36:38;;;;;;;14.23;8.68;;;4.10;99.90;;;;;;6213265;23;20028;-89
2021/12/13 03:39:39;;;;;;;11.98;8.57;;;4.10;99.90;;;;;;6214155;23;20025;-88
2021/12/13 03:42:35;;;;;;;16.05;8.52;;;4.10;99.90;;;;;;6192787;23;20646;-88
2021/12/13 03:45:32;;;;;;;11.02;8.05;;;4.20;99.90;;;;;;6213776;23;20392;-87
2021/12/13 03:48:28;;;;;;;12.52;7.68;;;4.20;99.90;;;;;;6192694;23;20423;-88
2021/12/13 03:51:21;;;;;;;10.15;7.05;;;4.20;99.90;;;;;;6190957;23;20044;-87
2021/12/13 03:54:12;;;;;;;11.00;7.65;;;4.20;99.90;;;;;;6193434;23;20203;-86
2021/12/13 03:57:00;;;;;;;11.05;7.22;;;4.10;99.90;;;;;;6214882;23;20029;-87
2021/12/13 03:59:51;;;;;;;12.52;7.80;;;4.10;99.90;;;;;;6172940;23;20025;-87
2021/12/13 04:02:40;;;;;;;15.85;7.72;;;4.10;99.90;;;;;;6191341;23;20439;-86
2021/12/13 04:05:31;;;;;;;14.63;8.75;;;4.10;99.90;;;;;;6217613;23;20037;-86
2021/12/13 04:08:22;;;;;;;11.32;7.43;;;4.10;99.90;;;;;;6219435;23;20052;-88
2021/12/13 04:11:12;;;;;;;12.40;7.93;;;4.00;99.90;;;;;;6193657;23;20032;-87
2021/12/13 04:14:13;;;;;;;11.10;7.68;;;4.10;99.90;;;;;;6193513;23;20091;-88
2021/12/13 04:17:36;;;;;;;12.18;7.97;;;4.10;99.90;;;;;;6195102;23;20025;-86
2021/12/13 04:20:36;;;;;;;11.27;8.25;;;4.10;99.90;;;;;;6192482;23;20083;-87
2021/12/13 04:23:23;;;;;;;12.65;8.05;;;4.20;99.90;;;;;;6194784;23;20085;-85
2021/12/13 04:26:14;;;;;;;12.18;8.23;;;4.20;99.90;;;;;;6193956;23;20056;-87
2021/12/13 04:29:03;;;;;;;14.00;8.33;;;4.20;99.90;;;;;;6194690;23;20032;-87
2021/12/13 04:31:53;;;;;;;11.93;7.45;;;4.10;99.90;;;;;;6193351;23;20024;-89
2021/12/13 04:34:42;;;;;;;15.75;8.38;;;4.10;99.90;;;;;;6174559;23;20028;-87
2021/12/13 04:37:37;;;;;;;13.13;8.30;;;4.10;99.90;;;;;;6213925;23;20104;-86
2021/12/13 04:40:31;;;;;;;15.85;9.07;;;4.10;99.90;;;;;;6193827;23;20036;-85
2021/12/13 04:43:22;;;;;;;11.25;7.47;;;4.00;99.90;;;;;;6192466;23;20122;-88
2021/12/13 04:46:11;;;;;;;14.40;7.65;;;4.00;99.90;;;;;;6200620;23;20029;-87
2021/12/13 04:49:05;;;;;;;12.10;7.72;;;4.00;99.90;;;;;;6208465;23;20028;-85
2021/12/13 04:52:07;;;;;;;12.90;7.93;;;4.10;99.90;;;;;;6204073;23;20039;-85
2021/12/13 04:54:56;;;;;;;10.60;6.80;;;4.20;99.90;;;;;;6216484;23;20024;-86
2021/12/13 04:57:46;;;;;;;12.60;8.07;;;4.20;99.90;;;;;;6175190;23;20242;-85
2021/12/13 05:00:41;;;;;;;11.52;7.53;;;4.20;99.90;;;;;;6195440;23;20035;-86
2021/12/13 05:04:00;;;;;;;11.15;7.63;;;4.20;99.90;;;;;;6216623;23;20104;-88
2021/12/13 05:06:49;;;;;;;9.48;7.53;;;4.20;99.90;;;;;;6198280;23;20036;-86
2021/12/13 05:09:38;;;;;;;13.88;7.82;;;4.20;99.90;;;;;;6193872;23;20452;-87
2021/12/13 05:12:28;;;;;;;13.30;7.93;;;4.20;99.90;;;;;;6195976;23;20116;-86
2021/12/13 05:15:24;;;;;;;12.23;7.30;;;4.20;99.90;;;;;;6193804;23;20034;-86
2021/12/13 05:18:22;;;;;;;12.00;7.72;;;4.20;99.90;;;;;;6194116;23;20024;-87
2021/12/13 05:21:14;;;;;;;13.27;8.13;;;4.20;99.90;;;;;;6213509;23;20072;-85
2021/12/13 05:44:32;;;;;;;14.43;8.90;;;4.30;99.90;;;;;;6227244;23;20254;-85
2021/12/13 05:47:27;;;;;;;12.00;8.52;;;4.30;99.90;;;;;;6213851;23;20039;-84
2021/12/13 05:50:31;;;;;;;14.32;9.43;;;4.30;99.90;;;;;;6202822;23;20273;-83
2021/12/13 05:53:38;;;;;;;13.77;8.65;;;4.30;99.90;;;;;;6202562;23;20040;-84
2021/12/13 05:56:35;;;;;;;17.77;9.05;;;4.30;99.90;;;;;;6213725;23;20028;-83
2021/12/13 05:59:26;;;;;;;13.35;8.38;;;4.40;99.90;;;;;;6191290;23;20316;-84
2021/12/13 06:02:39;;;;;;;11.77;8.15;;;4.40;99.90;;;;;;6191390;23;20408;-83
2021/12/13 06:05:27;;;;;;;12.30;8.48;;;4.40;99.90;;;;;;6193568;23;20043;-85
2021/12/13 06:08:21;;;;;;;13.18;8.85;;;4.50;99.90;;;;;;6214518;23;20054;-85
2021/12/13 06:11:38;;;;;;;13.65;8.40;;;4.40;99.90;;;;;;6192037;23;20032;-84
2021/12/13 06:14:29;;;;;;;11.65;8.43;;;4.40;99.90;;;;;;6212338;23;20020;-86
2021/12/13 06:17:32;;;;;;;15.23;8.27;;;4.40;99.90;;;;;;6169923;23;20025;-86
2021/12/13 06:20:39;;;;;;;13.52;8.32;;;4.40;99.90;;;;;;6189845;23;20039;-85
2021/12/13 06:23:32;;;;;;;15.98;8.43;;;4.40;99.90;;;;;;6190842;23;20024;-85
2021/12/13 06:26:30;;;;;;;14.00;8.52;;;4.40;99.90;;;;;;6212085;23;20056;-86
2021/12/13 06:29:18;;;;;;;14.50;8.07;;;4.40;99.90;;;;;;6195256;23;20059;-84
2021/12/13 06:40:27;;;;;;;16.20;8.20;;;4.40;99.90;;;;;;6186769;23;20025;-85
2021/12/13 06:48:09;;;;;;;16.88;9.15;;;4.30;99.90;;;;;;6215024;23;20005;-86
2021/12/13 06:50:59;;;;;;;11.93;7.70;;;4.30;99.90;;;;;;6213544;23;20155;-85
2021/12/13 06:54:12;;;;;;;11.40;7.28;;;4.30;99.90;;;;;;6191580;23;20021;-85
2021/12/13 06:57:13;;;;;;;14.98;8.57;;;4.40;99.90;;;;;;6214564;23;20112;-86
2021/12/13 07:00:05;;;;;;;12.60;9.27;;;4.30;99.90;;;;;;6191834;23;20036;-82
2021/12/13 07:03:01;;;;;;;13.40;8.98;;;4.30;99.90;;;;;;6193255;23;20111;-84
2021/12/13 07:05:52;;;;;;;16.35;9.27;;;4.30;99.90;;;;;;6215015;23;20035;-85
2021/12/13 07:08:42;;;;;;;16.40;9.48;;;4.30;99.90;;;;;;6210940;23;20293;-85
2021/12/13 07:11:40;;;;;;;21.00;9.65;;;4.20;99.90;;;;;;6192122;23;20029;-85
2021/12/13 07:14:38;;;;;;;12.52;9.15;;;4.20;99.90;;;;;;6191872;23;20021;-86
2021/12/13 07:17:34;;;;;;;23.70;10.30;;;4.20;99.90;;;;;;6213263;23;20051;-85
2021/12/13 07:20:24;;;;;;;17.20;9.90;;;4.20;99.90;;;;;;6215163;23;20115;-85
2021/12/13 07:23:16;;;;;;;20.35;11.70;;;4.20;99.90;;;;;;6195434;23;20036;-87
2021/12/13 07:26:35;;;;;;;24.95;11.43;;;4.20;99.90;;;;;;6201446;23;20031;-88
2021/12/13 07:29:45;;;;;;;18.65;12.25;;;4.20;99.90;;;;;;6200073;23;20049;-87
2021/12/13 07:32:36;;;;;;;;;;;4.30;99.90;;;;;;6220928;23;20048;-88
2021/12/13 07:35:39;;;;;;;20.23;12.95;;;4.30;99.90;;;;;;6200104;23;20286;-88
2021/12/13 07:38:31;;;;;;;29.75;14.32;;;4.30;99.90;;;;;;6223685;23;20079;-88
2021/12/13 07:41:19;;;;;;;;;;;4.30;99.90;;;;;;6203184;23;20056;-84
2021/12/13 07:44:11;;;;;;;30.58;12.82;;;4.30;99.90;;;;;;6202396;23;19927;-85
2021/12/13 07:47:06;;;;;;;30.83;14.40;;;4.30;99.90;;;;;;6181097;23;20056;-86
2021/12/13 07:50:06;;;;;;;24.92;14.00;;;4.30;99.90;;;;;;6210000;23;20098;-85
2021/12/13 07:53:25;;;;;;;27.27;13.45;;;4.40;99.90;;;;;;6210225;23;20009;-88
2021/12/13 07:56:39;;;;;;;;;;;;;;;;;;;;;
2021/12/13 07:59:35;;;;;;;29.00;14.35;;;4.50;99.90;;;;;;6210562;23;20063;-85
2021/12/13 08:02:33;;;;;;;39.75;21.75;;;4.50;99.90;;;;;;6211516;23;20052;-86
2021/12/13 08:05:45;;;;;;;38.05;18.65;;;4.50;99.90;;;;;;6211230;23;20095;-86
2021/12/13 08:08:55;;;;;;;48.17;18.33;;;4.50;99.90;;;;;;6205889;23;20029;-88
2021/12/13 08:12:01;;;;;;;33.20;18.20;;;4.50;99.90;;;;;;6202460;23;20036;-87
2021/12/13 08:14:53;;;;;;;38.40;18.38;;;4.50;99.90;;;;;;6198832;23;20032;-89
2021/12/13 08:17:58;;;;;;;39.00;18.85;;;4.50;99.90;;;;;;6196781;23;20053;-85
2021/12/13 08:21:06;;;;;;;35.72;18.77;;;4.50;99.90;;;;;;6188419;23;20025;-88
2021/12/13 08:24:00;;;;;;;37.70;19.70;;;4.50;99.90;;;;;;6188257;23;20036;-86
2021/12/13 08:27:16;;;;;;;38.03;20.52;;;4.60;99.90;;;;;;6190297;23;20407;-87
2021/12/13 08:30:21;;;;;;;45.80;23.08;;;4.70;99.90;;;;;;6190855;23;20083;-87
2021/12/13 08:33:40;;;;;;;42.53;24.23;;;4.70;99.90;;;;;;6193197;23;20052;-86
2021/12/13 08:40:20;;;;;;;48.80;26.05;;;4.80;99.90;;;;;;6199230;23;20380;-90
2021/12/13 08:43:09;;;;;;;47.00;25.27;;;4.80;99.90;;;;;;6197715;23;20020;-88
2021/12/13 08:45:59;;;;;;;46.65;23.20;;;4.80;99.90;;;;;;6179258;23;20255;-89
2021/12/13 08:48:50;;;;;;;41.20;24.45;;;4.90;99.90;;;;;;6199608;23;20034;-88
2021/12/13 08:51:57;;;;;;;42.22;23.20;;;4.90;99.90;;;;;;6197287;23;20126;-88
2021/12/13 08:54:55;;;;;;;47.35;23.98;;;5.00;99.90;;;;;;6198006;23;20032;-88
2021/12/13 08:57:56;;;;;;;40.58;20.00;;;5.00;99.90;;;;;;6215790;23;20028;-87
2021/12/13 09:01:15;;;;;;;41.20;20.05;;;5.10;99.90;;;;;;6214543;23;20399;-88
2021/12/13 09:04:32;;;;;;;37.85;18.45;;;5.10;99.90;;;;;;6214703;23;20427;-90
2021/12/13 09:07:44;;;;;;;31.33;17.42;;;5.20;99.90;;;;;;6216824;23;20107;-88
2021/12/13 09:11:20;;;;;;;;;;;;;;;;;;;;;
2021/12/13 09:14:51;;;;;;;31.27;17.08;;;5.50;99.90;;;;;;6217565;23;20094;-90
2021/12/13 09:17:46;;;;;;;29.98;15.77;;;5.50;99.90;;;;;;6177514;23;20419;-86
2021/12/13 09:21:01;;;;;;;27.90;15.27;;;5.50;99.90;;;;;;6196737;23;20024;-88
2021/12/13 09:23:51;;;;;;;33.00;17.42;;;5.60;99.90;;;;;;6198414;23;20029;-86
2021/12/13 09:26:42;;;;;;;30.80;16.35;;;5.60;99.90;;;;;;6194419;23;20091;-87
2021/12/13 09:29:29;;;;;;;34.78;17.17;;;5.60;99.90;;;;;;6196808;23;20047;-87
2021/12/13 09:32:20;;;;;;;34.47;14.88;;;5.70;99.90;;;;;;6216117;23;20082;-87
2021/12/13 09:35:36;;;;;;;29.90;14.65;;;5.70;99.90;;;;;;6218211;23;20024;-88
2021/12/13 09:38:39;;;;;;;29.38;15.02;;;5.90;99.90;;;;;;6215400;23;20460;-85
2021/12/13 09:41:35;;;;;;;19.80;10.95;;;6.00;99.90;;;;;;6195628;23;20060;-90
2021/12/13 09:44:39;;;;;;;23.35;14.00;;;6.20;99.90;;;;;;6197008;23;20028;-86
2021/12/13 09:47:39;;;;;;;24.27;14.05;;;6.30;99.90;;;;;;6205426;23;20017;-87
2021/12/13 09:50:31;;;;;;;17.98;11.98;;;6.40;99.90;;;;;;6208970;23;20044;-87
2021/12/13 09:53:31;;;;;;;19.83;12.40;;;6.60;99.90;;;;;;6209204;23;20083;-85
2021/12/13 09:56:25;;;;;;;17.05;11.30;;;6.80;99.90;;;;;;6200953;23;20059;-88
2021/12/13 10:02:55;;;;;;;18.70;10.75;;;7.40;99.90;;;;;;6170030;23;20324;-89
2021/12/13 10:05:57;;;;;;;11.48;7.93;;;8.00;99.90;;;;;;6198515;23;20043;-88
2021/12/13 10:09:22;;;;;;;14.15;8.07;;;8.70;99.90;;;;;;6195703;23;20020;-88
2021/12/13 10:12:14;;;;;;;8.48;5.95;;;9.10;99.90;;;;;;6187006;23;20028;-87
2021/12/13 10:15:18;;;;;;;11.80;7.85;;;8.90;99.90;;;;;;6205021;23;20080;-87
2021/12/13 10:18:14;;;;;;;19.25;10.13;;;8.40;99.90;;;;;;6201129;23;20048;-86
2021/12/13 10:21:12;;;;;;;16.50;10.13;;;8.30;99.90;;;;;;6203634;23;20046;-85
2021/12/13 10:24:08;;;;;;;18.13;11.32;;;8.30;99.90;;;;;;6222746;23;20039;-86
2021/12/13 10:27:01;;;;;;;15.40;9.45;;;8.30;99.90;;;;;;6199125;23;20082;-88
2021/12/13 10:30:04;;;;;;;17.65;10.90;;;8.30;99.90;;;;;;6203693;23;20029;-90
2021/12/13 10:33:10;;;;;;;19.85;11.02;;;8.40;99.90;;;;;;6207086;23;20021;-89
2021/12/13 10:36:01;;;;;;;16.13;10.98;;;8.30;99.90;;;;;;6231969;23;20059;-87
2021/12/13 10:39:08;;;;;;;;;;;;;;;;;;;;;
2021/12/13 10:42:32;;;;;;;17.33;10.77;;;8.30;99.90;;;;;;6223031;23;20032;-86
2021/12/13 10:45:24;;;;;;;21.92;10.50;;;8.30;99.90;;;;;;6201887;23;20100;-86
2021/12/13 10:48:29;;;;;;;15.90;10.93;;;8.30;99.90;;;;;;6089560;23;20174;-86
2021/12/13 10:51:27;;;;;;;11.23;7.70;;;8.40;99.90;;;;;;6091082;23;20014;-88
2021/12/13 10:54:18;;;;;;;8.07;5.93;;;8.60;99.90;;;;;;6096088;23;20027;-88
2021/12/13 10:57:15;;;;;;;5.18;4.18;;;8.80;99.90;;;;;;6118999;23;20020;-87
2021/12/13 11:00:40;;;;;;;6.38;4.90;;;9.20;99.90;;;;;;6116861;23;20014;-88
2021/12/13 11:03:31;;;;;;;7.57;3.47;;;9.50;99.90;;;;;;6121082;23;20106;-85
2021/12/13 11:06:21;;;;;;;6.28;4.45;;;9.90;99.90;;;;;;6098513;23;20050;-84
2021/12/13 11:09:19;;;;;;;8.40;5.75;;;9.80;99.90;;;;;;6093034;23;20022;-87
2021/12/13 11:12:23;;;;;;;5.57;4.15;;;9.80;99.90;;;;;;6106538;23;20029;-87
2021/12/13 11:15:29;;;;;;;5.88;3.70;;;10.00;99.90;;;;;;6079816;23;20026;-85
2021/12/13 11:18:28;;;;;;;3.55;3.20;;;10.10;99.90;;;;;;6096799;23;20190;-88
2021/12/13 11:21:23;;;;;;;4.07;3.40;;;10.20;99.90;;;;;;6076056;23;20421;-87
2021/12/13 11:24:25;;;;;;;5.45;3.13;;;10.10;99.90;;;;;;6097099;23;20088;-86
2021/12/13 11:27:28;;;;;;;5.70;3.38;;;10.00;99.90;;;;;;6197110;23;20091;-87
2021/12/13 11:30:20;;;;;;;6.97;4.72;;;9.70;99.90;;;;;;6196038;23;20095;-84
2021/12/13 11:33:20;;;;;;;7.35;4.53;;;9.50;99.90;;;;;;6197155;23;20150;-87
2021/12/13 11:36:40;;;;;;;5.85;3.83;;;9.60;99.90;;;;;;6196012;23;20024;-87
2021/12/13 11:39:59;;;;;;;4.45;3.45;;;9.60;99.90;;;;;;6193201;23;20021;-88
2021/12/13 11:43:12;;;;;;;4.22;3.50;;;9.40;99.90;;;;;;6176933;23;20127;-87
2021/12/13 11:46:17;;;;;;;5.10;3.60;;;9.20;99.90;;;;;;6196880;23;20036;-87
2021/12/13 11:49:42;;;;;;;7.07;4.75;;;8.80;99.90;;;;;;6198970;23;20028;-87
2021/12/13 11:52:39;;;;;;;7.53;4.93;;;8.60;99.90;;;;;;6197528;23;20343;-86
2021/12/13 11:56:04;;;;;;;14.82;7.50;;;8.50;99.90;;;;;;6197006;23;20128;-87
2021/12/13 11:59:41;;;;;;;13.57;7.72;;;8.40;99.90;;;;;;6222074;23;20499;-88
2021/12/13 12:03:23;;;;;;;5.95;3.45;;;8.30;99.90;;;;;;6205442;23;20341;-89
2021/12/13 12:06:47;;;;;;;3.10;2.58;;;8.30;99.90;;;;;;6199496;23;20629;-87
2021/12/13 12:09:57;;;;;;;5.25;3.47;;;8.40;99.90;;;;;;6198638;23;20419;-86
2021/12/13 12:13:04;;;;;;;3.90;3.35;;;8.40;99.90;;;;;;6220097;23;20071;-88
2021/12/13 12:16:07;;;;;;;2.60;2.15;;;8.40;99.90;;;;;;6202258;23;20036;-89
2021/12/13 12:19:05;;;;;;;3.40;2.08;;;8.50;99.90;;;;;;6200472;23;20039;-88
2021/12/13 12:22:17;;;;;;;3.05;1.90;;;8.60;99.90;;;;;;6217587;23;20099;-87
2021/12/13 12:25:07;;;;;;;1.90;1.80;;;8.60;99.90;;;;;;6199384;23;20036;-89
2021/12/13 12:28:02;;;;;;;2.53;2.17;;;8.70;99.90;;;;;;6178759;23;20032;-88
2021/12/13 12:31:04;;;;;;;3.53;2.00;;;8.70;99.90;;;;;;6199129;23;20037;-89
2021/12/13 12:33:59;;;;;;;3.33;2.53;;;8.70;99.90;;;;;;6199493;23;20029;-88
2021/12/13 12:36:59;;;;;;;3.38;2.50;;;8.80;99.90;;;;;;6215910;23;20058;-87
2021/12/13 12:40:06;;;;;;;;;;;;;;;;;;;;;
2021/12/13 12:43:10;;;;;;;2.65;1.92;;;9.10;99.90;;;;;;6228123;23;20330;-88
2021/12/13 12:46:01;;;;;;;2.05;1.80;;;9.10;99.90;;;;;;6199112;23;20086;-87
2021/12/13 12:48:57;;;;;;;2.40;1.98;;;9.10;99.90;;;;;;6218637;23;20286;-88
2021/12/13 12:51:46;;;;;;;3.53;2.25;;;9.10;99.90;;;;;;6219184;23;20103;-89
2021/12/13 12:54:47;;;;;;;2.85;2.50;;;9.00;99.90;;;;;;6180519;23;20067;-87
2021/12/13 12:57:49;;;;;;;4.00;3.00;;;8.90;99.90;;;;;;6104028;23;20101;-87
2021/12/13 13:00:38;;;;;;;3.10;2.35;;;8.90;99.90;;;;;;6123390;23;20025;-89
2021/12/13 13:03:30;;;;;;;5.00;2.85;;;8.80;99.90;;;;;;6122338;23;20034;-86
2021/12/13 13:06:23;;;;;;;3.70;2.80;;;8.60;99.90;;;;;;6100249;23;20034;-86
2021/12/13 13:09:11;;;;;;;3.90;2.50;;;8.60;99.90;;;;;;6124432;23;20030;-86
2021/12/13 13:12:05;;;;;;;4.28;3.13;;;8.60;99.90;;;;;;6101544;23;20089;-85
2021/12/13 13:15:25;;;;;;;5.43;3.33;;;8.40;99.90;;;;;;6098739;23;20026;-87
2021/12/13 13:18:20;;;;;;;6.90;3.17;;;8.40;99.90;;;;;;6103260;23;20038;-86
2021/12/13 13:21:10;;;;;;;7.07;3.83;;;8.40;99.90;;;;;;6121821;23;20022;-84
2021/12/13 13:24:01;;;;;;;5.18;3.70;;;8.40;99.90;;;;;;6118272;23;20038;-85
2021/12/13 13:26:52;;;;;;;6.20;2.75;;;8.50;99.90;;;;;;6124925;23;20057;-87
2021/12/13 13:29:44;;;;;;;;;;;8.40;99.90;;;;;;6204703;23;20020;-88
2021/12/13 13:32:38;;;;;;;2.88;2.50;;;8.40;99.90;;;;;;6188228;23;19928;-86
2021/12/13 13:35:25;;;;;;;4.75;2.70;;;8.30;99.90;;;;;;6225499;23;20047;-86
2021/12/13 13:38:21;;;;;;;4.72;2.67;;;8.20;99.90;;;;;;6190084;23;20024;-85
2021/12/13 13:41:18;;;;;;;3.65;2.50;;;8.20;99.90;;;;;;6199858;23;20170;-86
2021/12/13 13:44:12;;;;;;;5.30;3.25;;;8.20;99.90;;;;;;6192479;23;20123;-85
2021/12/13 13:47:09;;;;;;;3.53;2.58;;;8.10;99.90;;;;;;6191809;23;20039;-88
2021/12/13 13:50:15;;;;;;;3.58;2.83;;;8.10;99.90;;;;;;6193613;23;20021;-86
2021/12/13 13:53:26;;;;;;;3.13;2.80;;;8.00;99.90;;;;;;6187150;23;20092;-85
2021/12/13 13:56:15;;;;;;;3.05;2.67;;;7.90;99.90;;;;;;6216464;23;20470;-86
2021/12/13 13:59:13;;;;;;;4.47;3.47;;;7.90;99.90;;;;;;6190755;22;20024;-86
2021/12/13 14:02:07;;;;;;;4.10;3.70;;;7.90;99.90;;;;;;6214857;23;20328;-88
2021/12/13 14:09:28;;;;;;;4.80;3.05;;;7.90;99.90;;;;;;6213230;22;20027;-88
2021/12/13 14:12:41;;;;;;;;;;;;;;;;;;;;;
2021/12/13 14:15:38;;;;;;;65.78;34.28;;;7.90;99.90;;;;;;6250971;23;20055;-88
2021/12/13 14:18:30;;;;;;;9.45;5.00;;;7.90;99.90;;;;;;6226411;23;20035;-85
2021/12/13 14:24:09;;;;;;;5.10;3.30;;;7.70;99.90;;;;;;6218268;23;20033;-87
2021/12/13 14:27:21;;;;;;;87.13;31.98;;;7.70;99.90;;;;;;6122881;23;20060;-87
2021/12/13 14:30:30;;;;;;;128.20;48.58;;;7.70;99.90;;;;;;6137831;23;20467;-86
2021/12/13 14:33:25;;;;;;;3.97;3.35;;;7.70;99.90;;;;;;6158384;23;20026;-88
2021/12/13 14:36:20;;;;;;;3.22;2.80;;;7.60;99.90;;;;;;6138564;23;20499;-86
2021/12/13 14:39:45;;;;;;;2.53;2.33;;;7.60;99.90;;;;;;6139930;23;20048;-89
2021/12/13 14:42:36;;;;;;;6.28;3.92;;;7.50;99.90;;;;;;6133927;23;20033;-87
2021/12/13 14:45:43;;;;;;;6.85;4.00;;;7.50;99.90;;;;;;6136444;23;20099;-89
2021/12/13 14:49:29;;;;;;;4.88;4.10;;;7.40;99.90;;;;;;6028521;23;20044;-88
2021/12/13 14:52:32;;;;;;;3.88;3.50;;;7.30;99.90;;;;;;6020097;23;20039;-88
2021/12/13 14:55:31;;;;;;;5.68;4.20;;;7.30;99.90;;;;;;6039328;23;20049;-87
2021/12/13 14:58:38;;;;;;;6.90;4.60;;;7.30;99.90;;;;;;6040110;23;20027;-87
2021/12/13 15:01:40;;;;;;;5.80;4.50;;;7.20;99.90;;;;;;6023741;23;20320;-88
2021/12/13 15:04:34;;;;;;;4.80;4.37;;;7.20;99.90;;;;;;6055949;23;20041;-88
2021/12/13 15:07:44;;;;;;;7.72;6.18;;;7.20;99.90;;;;;;6198358;23;20017;-86
2021/12/13 15:11:11;;;;;;;8.27;5.60;;;7.20;99.90;;;;;;6056747;23;20027;-89
2021/12/13 15:14:08;;;;;;;7.55;6.75;;;7.10;99.90;;;;;;6050867;23;20042;-86
2021/12/13 15:17:20;;;;;;;7.30;6.50;;;7.10;99.90;;;;;;6070820;23;20042;-86
2021/12/13 15:20:26;;;;;;;;;;;;;;;;;;;;;
2021/12/13 15:23:32;;;;;;;7.43;6.65;;;7.10;99.90;;;;;;6069754;23;20104;-89
2021/12/13 15:26:31;;;;;;;7.25;6.50;;;7.10;99.90;;;;;;6068281;23;20114;-87
2021/12/13 15:29:25;;;;;;;8.05;6.30;;;7.10;99.90;;;;;;6141396;23;20437;-88
2021/12/13 15:32:38;;;;;;;8.00;6.60;;;7.00;99.90;;;;;;6158690;23;20100;-84
2021/12/13 15:35:43;;;;;;;12.88;9.73;;;7.10;99.90;;;;;;6160183;23;20025;-89
2021/12/13 15:38:34;;;;;;;9.93;8.68;;;7.00;99.90;;;;;;6159763;23;20021;-87
2021/12/13 15:42:27;;;;;;;;;;;;;;;;;;;;;
2021/12/13 15:45:58;;;;;;;8.20;7.18;;;7.00;99.90;;;;;;6156698;23;20041;-87
2021/12/13 15:52:22;;;;;;;9.35;6.35;;;7.00;99.90;;;;;;6155406;23;20026;-91
2021/12/13 15:55:10;;;;;;;6.82;5.82;;;7.00;99.90;;;;;;6178519;23;20444;-90
2021/12/13 15:58:38;;;;;;;6.20;5.00;;;7.00;99.90;;;;;;6157615;23;20099;-90
2021/12/13 16:01:33;;;;;;;4.30;3.60;;;6.90;99.90;;;;;;6155448;23;20025;-88
2021/12/13 16:04:27;;;;;;;7.28;5.72;;;6.80;99.90;;;;;;6158704;23;20451;-89
2021/12/13 16:07:19;;;;;;;6.63;5.78;;;6.70;99.90;;;;;;6180022;23;20045;-89
2021/12/13 16:10:13;;;;;;;7.38;6.68;;;6.70;99.90;;;;;;6158879;23;20034;-87
2021/12/13 16:13:14;;;;;;;8.57;7.10;;;6.70;99.90;;;;;;6179411;23;20029;-87
2021/12/13 16:16:15;;;;;;;12.75;9.20;;;6.70;99.90;;;;;;6177030;23;20058;-88
2021/12/13 16:19:10;;;;;;;9.23;6.75;;;6.70;99.90;;;;;;6165664;23;20080;-88
2021/12/13 16:22:00;;;;;;;15.73;11.23;;;6.70;99.90;;;;;;6193940;23;20052;-89
2021/12/13 16:24:54;;;;;;;12.70;8.10;;;6.70;99.90;;;;;;6212418;23;20022;-89
2021/12/13 16:27:50;;;;;;;9.00;7.40;;;6.70;99.90;;;;;;6216257;23;20033;-88
2021/12/13 16:30:55;;;;;;;6.32;5.32;;;6.70;99.90;;;;;;6216697;23;20036;-87
2021/12/13 16:33:49;;;;;;;;;;;6.70;99.90;;;;;;6240010;23;20080;-88
2021/12/13 16:36:45;;;;;;;7.80;6.85;;;6.70;99.90;;;;;;6216190;23;19915;-89
2021/12/13 16:39:44;;;;;;;6.65;5.30;;;6.70;99.90;;;;;;6216343;23;20025;-87
2021/12/13 16:42:32;;;;;;;12.52;9.05;;;6.70;99.90;;;;;;6207145;23;20159;-87
2021/12/13 16:45:25;;;;;;;9.18;7.72;;;6.60;99.90;;;;;;6203575;23;20029;-88
2021/12/13 16:48:23;;;;;;;10.73;7.95;;;6.60;99.90;;;;;;6198545;23;20055;-89